sensor_id;sensor_type;location;lat;lon;timestamp;P1;durP1;ratioP1;P2;durP2;ratioP2
71288;SDS011;59068;52.502;9.860;2023-06-14T00:00:43;3.70;;;2.00;;
71288;SDS011;59068;52.502;9.860;2023-06-14T00:03:09;2.07;;;1.97;;
71288;SDS011;59068;52.502;9.860;2023-06-14T00:05:36;5.23;;;2.40;;
71288;SDS011;59068;52.502;9.860;2023-06-14T00:08:06;6.23;;;2.27;;
71288;SDS011;59068;52.502;9.860;2023-06-14T00:10:35;3.23;;;2.23;;
71288;SDS011;59068;52.502;9.860;2023-06-14T00:13:01;4.00;;;2.30;;
71288;SDS011;59068;52.502;9.860;2023-06-14T00:15:27;2.67;;;2.43;;
71288;SDS011;59068;52.502;9.860;2023-06-14T00:17:53;4.07;;;2.10;;
71288;SDS011;59068;52.502;9.860;2023-06-14T00:20:19;4.00;;;2.20;;
71288;SDS011;59068;52.502;9.860;2023-06-14T00:22:45;2.47;;;1.90;;
71288;SDS011;59068;52.502;9.860;2023-06-14T00:25:11;2.77;;;2.10;;
71288;SDS011;59068;52.502;9.860;2023-06-14T00:27:36;2.83;;;2.40;;
71288;SDS011;59068;52.502;9.860;2023-06-14T00:30:01;2.20;;;1.90;;
71288;SDS011;59068;52.502;9.860;2023-06-14T00:32:27;3.83;;;1.90;;
71288;SDS011;59068;52.502;9.860;2023-06-14T00:34:52;4.23;;;2.03;;
71288;SDS011;59068;52.502;9.860;2023-06-14T00:37:18;3.63;;;2.10;;
71288;SDS011;59068;52.502;9.860;2023-06-14T00:39:43;4.33;;;2.10;;
71288;SDS011;59068;52.502;9.860;2023-06-14T00:42:08;3.23;;;2.70;;
71288;SDS011;59068;52.502;9.860;2023-06-14T00:44:34;2.93;;;1.70;;
71288;SDS011;59068;52.502;9.860;2023-06-14T00:46:59;2.27;;;2.10;;
71288;SDS011;59068;52.502;9.860;2023-06-14T00:49:25;3.13;;;2.30;;
71288;SDS011;59068;52.502;9.860;2023-06-14T00:51:51;2.63;;;2.03;;
71288;SDS011;59068;52.502;9.860;2023-06-14T00:54:16;2.43;;;2.23;;
71288;SDS011;59068;52.502;9.860;2023-06-14T00:56:42;2.07;;;1.97;;
71288;SDS011;59068;52.502;9.860;2023-06-14T00:59:08;2.43;;;2.10;;
71288;SDS011;59068;52.502;9.860;2023-06-14T01:01:36;3.70;;;2.00;;
71288;SDS011;59068;52.502;9.860;2023-06-14T01:04:02;4.07;;;2.20;;
71288;SDS011;59068;52.502;9.860;2023-06-14T01:06:43;2.53;;;2.10;;
71288;SDS011;59068;52.502;9.860;2023-06-14T01:09:15;3.67;;;2.37;;
71288;SDS011;59068;52.502;9.860;2023-06-14T01:11:59;2.77;;;2.30;;
71288;SDS011;59068;52.502;9.860;2023-06-14T01:14:26;3.20;;;2.10;;
71288;SDS011;59068;52.502;9.860;2023-06-14T01:16:52;4.00;;;2.30;;
71288;SDS011;59068;52.502;9.860;2023-06-14T01:19:18;2.83;;;1.73;;
71288;SDS011;59068;52.502;9.860;2023-06-14T01:21:44;3.33;;;2.00;;
71288;SDS011;59068;52.502;9.860;2023-06-14T01:24:09;2.87;;;1.90;;
71288;SDS011;59068;52.502;9.860;2023-06-14T01:26:36;3.23;;;1.87;;
71288;SDS011;59068;52.502;9.860;2023-06-14T01:29:02;2.90;;;2.00;;
71288;SDS011;59068;52.502;9.860;2023-06-14T01:31:28;2.20;;;1.93;;
71288;SDS011;59068;52.502;9.860;2023-06-14T01:33:54;2.53;;;1.63;;
71288;SDS011;59068;52.502;9.860;2023-06-14T01:36:20;3.73;;;2.20;;
71288;SDS011;59068;52.502;9.860;2023-06-14T01:38:46;3.27;;;1.60;;
71288;SDS011;59068;52.502;9.860;2023-06-14T01:41:14;3.10;;;2.17;;
71288;SDS011;59068;52.502;9.860;2023-06-14T01:43:40;3.33;;;1.73;;
71288;SDS011;59068;52.502;9.860;2023-06-14T01:46:06;2.20;;;2.00;;
71288;SDS011;59068;52.502;9.860;2023-06-14T01:48:33;2.23;;;1.90;;
71288;SDS011;59068;52.502;9.860;2023-06-14T01:50:59;3.70;;;2.30;;
71288;SDS011;59068;52.502;9.860;2023-06-14T01:53:24;2.20;;;1.90;;
71288;SDS011;59068;52.502;9.860;2023-06-14T01:55:50;2.33;;;1.70;;
71288;SDS011;59068;52.502;9.860;2023-06-14T01:58:15;2.60;;;1.67;;
71288;SDS011;59068;52.502;9.860;2023-06-14T02:00:41;3.03;;;2.27;;
71288;SDS011;59068;52.502;9.860;2023-06-14T02:03:08;1.77;;;1.67;;
71288;SDS011;59068;52.502;9.860;2023-06-14T02:05:34;2.67;;;2.10;;
71288;SDS011;59068;52.502;9.860;2023-06-14T02:08:00;2.60;;;2.10;;
71288;SDS011;59068;52.502;9.860;2023-06-14T02:10:25;2.30;;;1.70;;
71288;SDS011;59068;52.502;9.860;2023-06-14T02:12:51;2.83;;;2.30;;
71288;SDS011;59068;52.502;9.860;2023-06-14T02:15:16;2.83;;;2.50;;
71288;SDS011;59068;52.502;9.860;2023-06-14T02:17:44;2.37;;;2.03;;
71288;SDS011;59068;52.502;9.860;2023-06-14T02:20:10;3.83;;;1.93;;
71288;SDS011;59068;52.502;9.860;2023-06-14T02:22:36;2.30;;;1.97;;
71288;SDS011;59068;52.502;9.860;2023-06-14T02:25:01;3.87;;;2.20;;
71288;SDS011;59068;52.502;9.860;2023-06-14T02:27:26;3.60;;;2.27;;
71288;SDS011;59068;52.502;9.860;2023-06-14T02:29:52;3.20;;;2.13;;
71288;SDS011;59068;52.502;9.860;2023-06-14T02:32:17;2.33;;;2.13;;
71288;SDS011;59068;52.502;9.860;2023-06-14T02:34:42;3.77;;;2.53;;
71288;SDS011;59068;52.502;9.860;2023-06-14T02:37:08;3.00;;;2.20;;
71288;SDS011;59068;52.502;9.860;2023-06-14T02:39:33;2.47;;;2.27;;
71288;SDS011;59068;52.502;9.860;2023-06-14T02:41:59;2.83;;;2.53;;
71288;SDS011;59068;52.502;9.860;2023-06-14T02:44:25;2.53;;;2.33;;
71288;SDS011;59068;52.502;9.860;2023-06-14T02:46:54;3.60;;;2.20;;
71288;SDS011;59068;52.502;9.860;2023-06-14T02:49:20;1.93;;;1.73;;
71288;SDS011;59068;52.502;9.860;2023-06-14T02:51:46;2.53;;;2.30;;
71288;SDS011;59068;52.502;9.860;2023-06-14T02:54:12;3.27;;;2.20;;
71288;SDS011;59068;52.502;9.860;2023-06-14T02:56:37;6.40;;;2.43;;
71288;SDS011;59068;52.502;9.860;2023-06-14T02:59:02;2.60;;;2.40;;
71288;SDS011;59068;52.502;9.860;2023-06-14T03:01:28;2.47;;;2.23;;
71288;SDS011;59068;52.502;9.860;2023-06-14T03:04:00;2.83;;;2.63;;
71288;SDS011;59068;52.502;9.860;2023-06-14T03:06:26;3.00;;;2.80;;
71288;SDS011;59068;52.502;9.860;2023-06-14T03:08:54;2.80;;;2.53;;
71288;SDS011;59068;52.502;9.860;2023-06-14T03:11:24;3.07;;;2.87;;
71288;SDS011;59068;52.502;9.860;2023-06-14T03:13:50;4.97;;;2.90;;
71288;SDS011;59068;52.502;9.860;2023-06-14T03:16:16;3.77;;;2.50;;
71288;SDS011;59068;52.502;9.860;2023-06-14T03:18:44;2.80;;;2.60;;
71288;SDS011;59068;52.502;9.860;2023-06-14T03:21:10;2.70;;;2.50;;
71288;SDS011;59068;52.502;9.860;2023-06-14T03:23:35;3.93;;;2.30;;
71288;SDS011;59068;52.502;9.860;2023-06-14T03:26:01;2.50;;;2.30;;
71288;SDS011;59068;52.502;9.860;2023-06-14T03:28:26;2.67;;;2.27;;
71288;SDS011;59068;52.502;9.860;2023-06-14T03:30:51;3.13;;;2.50;;
71288;SDS011;59068;52.502;9.860;2023-06-14T03:33:17;3.37;;;2.40;;
71288;SDS011;59068;52.502;9.860;2023-06-14T03:35:43;2.70;;;2.50;;
71288;SDS011;59068;52.502;9.860;2023-06-14T03:38:08;2.53;;;2.33;;
71288;SDS011;59068;52.502;9.860;2023-06-14T03:40:33;3.77;;;2.50;;
71288;SDS011;59068;52.502;9.860;2023-06-14T03:42:59;3.30;;;2.77;;
71288;SDS011;59068;52.502;9.860;2023-06-14T03:45:24;3.10;;;2.50;;
71288;SDS011;59068;52.502;9.860;2023-06-14T03:47:50;3.87;;;2.27;;
71288;SDS011;59068;52.502;9.860;2023-06-14T03:50:15;2.53;;;2.17;;
71288;SDS011;59068;52.502;9.860;2023-06-14T03:52:41;2.80;;;2.60;;
71288;SDS011;59068;52.502;9.860;2023-06-14T03:55:08;3.17;;;2.57;;
71288;SDS011;59068;52.502;9.860;2023-06-14T03:57:35;5.27;;;2.57;;
71288;SDS011;59068;52.502;9.860;2023-06-14T04:00:00;4.87;;;2.37;;
71288;SDS011;59068;52.502;9.860;2023-06-14T04:02:26;4.20;;;2.50;;
71288;SDS011;59068;52.502;9.860;2023-06-14T04:04:53;2.60;;;2.23;;
71288;SDS011;59068;52.502;9.860;2023-06-14T04:07:19;5.27;;;2.60;;
71288;SDS011;59068;52.502;9.860;2023-06-14T04:09:45;3.57;;;2.77;;
71288;SDS011;59068;52.502;9.860;2023-06-14T04:12:11;4.13;;;2.40;;
71288;SDS011;59068;52.502;9.860;2023-06-14T04:14:36;3.47;;;2.10;;
71288;SDS011;59068;52.502;9.860;2023-06-14T04:17:02;5.47;;;2.80;;
71288;SDS011;59068;52.502;9.860;2023-06-14T04:19:27;4.27;;;2.33;;
71288;SDS011;59068;52.502;9.860;2023-06-14T04:21:53;2.50;;;2.30;;
71288;SDS011;59068;52.502;9.860;2023-06-14T04:24:18;4.37;;;2.60;;
71288;SDS011;59068;52.502;9.860;2023-06-14T04:26:44;3.30;;;2.40;;
71288;SDS011;59068;52.502;9.860;2023-06-14T04:29:13;2.73;;;2.50;;
71288;SDS011;59068;52.502;9.860;2023-06-14T04:31:39;2.60;;;2.37;;
71288;SDS011;59068;52.502;9.860;2023-06-14T04:34:05;3.13;;;2.37;;
71288;SDS011;59068;52.502;9.860;2023-06-14T04:36:35;2.73;;;2.53;;
71288;SDS011;59068;52.502;9.860;2023-06-14T04:39:03;2.83;;;2.27;;
71288;SDS011;59068;52.502;9.860;2023-06-14T04:41:29;3.23;;;2.30;;
71288;SDS011;59068;52.502;9.860;2023-06-14T04:43:55;4.77;;;2.43;;
71288;SDS011;59068;52.502;9.860;2023-06-14T04:46:22;4.87;;;3.20;;
71288;SDS011;59068;52.502;9.860;2023-06-14T04:48:47;3.23;;;2.70;;
71288;SDS011;59068;52.502;9.860;2023-06-14T04:51:15;3.13;;;2.73;;
71288;SDS011;59068;52.502;9.860;2023-06-14T04:53:41;3.03;;;2.70;;
71288;SDS011;59068;52.502;9.860;2023-06-14T04:56:06;2.73;;;2.50;;
71288;SDS011;59068;52.502;9.860;2023-06-14T04:58:33;3.00;;;2.10;;
71288;SDS011;59068;52.502;9.860;2023-06-14T05:00:59;2.50;;;2.30;;
71288;SDS011;59068;52.502;9.860;2023-06-14T05:03:25;3.20;;;2.40;;
71288;SDS011;59068;52.502;9.860;2023-06-14T05:05:51;2.80;;;2.47;;
71288;SDS011;59068;52.502;9.860;2023-06-14T05:08:18;2.50;;;2.20;;
71288;SDS011;59068;52.502;9.860;2023-06-14T05:10:43;3.67;;;2.70;;
71288;SDS011;59068;52.502;9.860;2023-06-14T05:13:08;3.30;;;2.70;;
71288;SDS011;59068;52.502;9.860;2023-06-14T05:15:35;3.43;;;2.33;;
71288;SDS011;59068;52.502;9.860;2023-06-14T05:18:00;2.60;;;2.40;;
71288;SDS011;59068;52.502;9.860;2023-06-14T05:20:26;2.70;;;2.50;;
71288;SDS011;59068;52.502;9.860;2023-06-14T05:22:54;2.73;;;2.53;;
71288;SDS011;59068;52.502;9.860;2023-06-14T05:25:21;2.50;;;2.30;;
71288;SDS011;59068;52.502;9.860;2023-06-14T05:27:47;4.97;;;2.07;;
71288;SDS011;59068;52.502;9.860;2023-06-14T05:30:13;2.60;;;1.70;;
71288;SDS011;59068;52.502;9.860;2023-06-14T05:32:40;3.50;;;2.30;;
71288;SDS011;59068;52.502;9.860;2023-06-14T05:35:05;3.63;;;2.00;;
71288;SDS011;59068;52.502;9.860;2023-06-14T05:37:31;2.83;;;2.27;;
71288;SDS011;59068;52.502;9.860;2023-06-14T05:39:57;5.33;;;2.00;;
71288;SDS011;59068;52.502;9.860;2023-06-14T05:42:22;3.27;;;1.83;;
71288;SDS011;59068;52.502;9.860;2023-06-14T05:44:47;2.80;;;2.03;;
71288;SDS011;59068;52.502;9.860;2023-06-14T05:47:13;3.90;;;1.80;;
71288;SDS011;59068;52.502;9.860;2023-06-14T05:49:38;1.77;;;1.67;;
71288;SDS011;59068;52.502;9.860;2023-06-14T05:52:04;2.17;;;1.80;;
71288;SDS011;59068;52.502;9.860;2023-06-14T05:54:29;1.80;;;1.70;;
71288;SDS011;59068;52.502;9.860;2023-06-14T05:56:55;2.00;;;1.67;;
71288;SDS011;59068;52.502;9.860;2023-06-14T05:59:20;3.23;;;2.03;;
71288;SDS011;59068;52.502;9.860;2023-06-14T06:01:45;2.47;;;2.10;;
71288;SDS011;59068;52.502;9.860;2023-06-14T06:04:11;1.73;;;1.63;;
71288;SDS011;59068;52.502;9.860;2023-06-14T06:06:36;2.10;;;1.90;;
71288;SDS011;59068;52.502;9.860;2023-06-14T06:09:02;3.80;;;1.93;;
71288;SDS011;59068;52.502;9.860;2023-06-14T06:11:27;2.20;;;2.00;;
71288;SDS011;59068;52.502;9.860;2023-06-14T06:13:52;2.30;;;2.13;;
71288;SDS011;59068;52.502;9.860;2023-06-14T06:16:18;2.07;;;1.83;;
71288;SDS011;59068;52.502;9.860;2023-06-14T06:18:43;2.20;;;1.57;;
71288;SDS011;59068;52.502;9.860;2023-06-14T06:21:08;2.03;;;1.57;;
71288;SDS011;59068;52.502;9.860;2023-06-14T06:23:34;1.80;;;1.70;;
71288;SDS011;59068;52.502;9.860;2023-06-14T06:26:00;1.90;;;1.80;;
71288;SDS011;59068;52.502;9.860;2023-06-14T06:28:26;1.80;;;1.70;;
71288;SDS011;59068;52.502;9.860;2023-06-14T06:30:51;2.53;;;2.03;;
71288;SDS011;59068;52.502;9.860;2023-06-14T06:33:17;2.17;;;1.40;;
71288;SDS011;59068;52.502;9.860;2023-06-14T06:35:42;3.30;;;1.73;;
71288;SDS011;59068;52.502;9.860;2023-06-14T06:38:07;1.73;;;1.50;;
71288;SDS011;59068;52.502;9.860;2023-06-14T06:40:34;2.07;;;1.90;;
71288;SDS011;59068;52.502;9.860;2023-06-14T06:43:01;1.77;;;1.67;;
71288;SDS011;59068;52.502;9.860;2023-06-14T06:45:28;2.03;;;1.67;;
71288;SDS011;59068;52.502;9.860;2023-06-14T06:47:54;4.70;;;2.03;;
71288;SDS011;59068;52.502;9.860;2023-06-14T06:50:20;2.07;;;1.43;;
71288;SDS011;59068;52.502;9.860;2023-06-14T06:52:48;2.27;;;1.70;;
71288;SDS011;59068;52.502;9.860;2023-06-14T06:55:13;3.17;;;1.60;;
71288;SDS011;59068;52.502;9.860;2023-06-14T06:57:39;2.40;;;1.80;;
71288;SDS011;59068;52.502;9.860;2023-06-14T07:00:05;2.30;;;2.10;;
71288;SDS011;59068;52.502;9.860;2023-06-14T07:02:34;2.70;;;1.70;;
71288;SDS011;59068;52.502;9.860;2023-06-14T07:04:59;2.47;;;1.90;;
71288;SDS011;59068;52.502;9.860;2023-06-14T07:07:25;2.70;;;1.87;;
71288;SDS011;59068;52.502;9.860;2023-06-14T07:09:51;2.67;;;1.73;;
71288;SDS011;59068;52.502;9.860;2023-06-14T07:12:17;2.03;;;1.57;;
71288;SDS011;59068;52.502;9.860;2023-06-14T07:14:43;2.77;;;1.57;;
71288;SDS011;59068;52.502;9.860;2023-06-14T07:17:08;2.20;;;1.60;;
71288;SDS011;59068;52.502;9.860;2023-06-14T07:19:34;1.63;;;1.53;;
71288;SDS011;59068;52.502;9.860;2023-06-14T07:22:00;1.87;;;1.63;;
71288;SDS011;59068;52.502;9.860;2023-06-14T07:24:25;2.10;;;1.90;;
71288;SDS011;59068;52.502;9.860;2023-06-14T07:26:50;2.00;;;1.80;;
71288;SDS011;59068;52.502;9.860;2023-06-14T07:29:16;2.83;;;1.83;;
71288;SDS011;59068;52.502;9.860;2023-06-14T07:31:41;1.93;;;1.53;;
71288;SDS011;59068;52.502;9.860;2023-06-14T07:34:07;1.90;;;1.50;;
71288;SDS011;59068;52.502;9.860;2023-06-14T07:36:32;3.00;;;1.60;;
71288;SDS011;59068;52.502;9.860;2023-06-14T07:38:57;1.93;;;1.63;;
71288;SDS011;59068;52.502;9.860;2023-06-14T07:41:23;1.40;;;1.30;;
71288;SDS011;59068;52.502;9.860;2023-06-14T07:43:48;2.00;;;1.60;;
71288;SDS011;59068;52.502;9.860;2023-06-14T07:46:14;1.80;;;1.70;;
71288;SDS011;59068;52.502;9.860;2023-06-14T07:48:39;2.17;;;1.97;;
71288;SDS011;59068;52.502;9.860;2023-06-14T07:51:05;2.47;;;1.87;;
71288;SDS011;59068;52.502;9.860;2023-06-14T07:53:30;2.13;;;1.80;;
71288;SDS011;59068;52.502;9.860;2023-06-14T07:55:56;1.90;;;1.80;;
71288;SDS011;59068;52.502;9.860;2023-06-14T07:58:21;3.50;;;2.00;;
71288;SDS011;59068;52.502;9.860;2023-06-14T08:00:47;2.57;;;1.77;;
71288;SDS011;59068;52.502;9.860;2023-06-14T08:03:12;2.77;;;1.73;;
71288;SDS011;59068;52.502;9.860;2023-06-14T08:05:37;3.60;;;1.93;;
71288;SDS011;59068;52.502;9.860;2023-06-14T08:08:03;2.27;;;2.00;;
71288;SDS011;59068;52.502;9.860;2023-06-14T08:10:28;1.87;;;1.70;;
71288;SDS011;59068;52.502;9.860;2023-06-14T08:12:54;1.90;;;1.80;;
71288;SDS011;59068;52.502;9.860;2023-06-14T08:15:19;3.43;;;1.90;;
71288;SDS011;59068;52.502;9.860;2023-06-14T08:17:45;2.10;;;1.60;;
71288;SDS011;59068;52.502;9.860;2023-06-14T08:20:10;2.30;;;2.10;;
71288;SDS011;59068;52.502;9.860;2023-06-14T08:22:37;2.30;;;2.07;;
71288;SDS011;59068;52.502;9.860;2023-06-14T08:25:02;2.63;;;2.03;;
71288;SDS011;59068;52.502;9.860;2023-06-14T08:27:28;2.13;;;1.93;;
71288;SDS011;59068;52.502;9.860;2023-06-14T08:29:54;3.37;;;2.07;;
71288;SDS011;59068;52.502;9.860;2023-06-14T08:32:20;2.13;;;2.03;;
71288;SDS011;59068;52.502;9.860;2023-06-14T08:34:45;2.30;;;1.90;;
71288;SDS011;59068;52.502;9.860;2023-06-14T08:37:10;2.00;;;1.90;;
71288;SDS011;59068;52.502;9.860;2023-06-14T08:39:36;3.07;;;1.90;;
71288;SDS011;59068;52.502;9.860;2023-06-14T08:42:02;1.90;;;1.80;;
71288;SDS011;59068;52.502;9.860;2023-06-14T08:44:29;2.00;;;1.90;;
71288;SDS011;59068;52.502;9.860;2023-06-14T08:46:55;3.37;;;2.10;;
71288;SDS011;59068;52.502;9.860;2023-06-14T08:49:24;4.70;;;1.90;;
71288;SDS011;59068;52.502;9.860;2023-06-14T08:51:51;1.83;;;1.57;;
71288;SDS011;59068;52.502;9.860;2023-06-14T08:54:22;2.30;;;2.10;;
71288;SDS011;59068;52.502;9.860;2023-06-14T08:56:49;1.70;;;1.60;;
71288;SDS011;59068;52.502;9.860;2023-06-14T08:59:16;2.20;;;2.00;;
71288;SDS011;59068;52.502;9.860;2023-06-14T09:01:43;2.10;;;1.90;;
71288;SDS011;59068;52.502;9.860;2023-06-14T09:04:10;2.97;;;1.90;;
71288;SDS011;59068;52.502;9.860;2023-06-14T09:06:35;1.87;;;1.70;;
71288;SDS011;59068;52.502;9.860;2023-06-14T09:09:02;2.20;;;1.67;;
71288;SDS011;59068;52.502;9.860;2023-06-14T09:11:29;2.07;;;1.87;;
71288;SDS011;59068;52.502;9.860;2023-06-14T09:13:55;2.83;;;1.90;;
71288;SDS011;59068;52.502;9.860;2023-06-14T09:16:20;2.00;;;1.77;;
71288;SDS011;59068;52.502;9.860;2023-06-14T09:18:46;1.70;;;1.60;;
71288;SDS011;59068;52.502;9.860;2023-06-14T09:21:15;1.70;;;1.60;;
71288;SDS011;59068;52.502;9.860;2023-06-14T09:23:42;2.20;;;1.80;;
71288;SDS011;59068;52.502;9.860;2023-06-14T09:26:12;2.80;;;1.80;;
71288;SDS011;59068;52.502;9.860;2023-06-14T09:28:45;2.13;;;1.93;;
71288;SDS011;59068;52.502;9.860;2023-06-14T09:31:15;3.10;;;1.70;;
71288;SDS011;59068;52.502;9.860;2023-06-14T09:33:45;2.43;;;1.70;;
71288;SDS011;59068;52.502;9.860;2023-06-14T09:36:14;2.70;;;2.00;;
71288;SDS011;59068;52.502;9.860;2023-06-14T09:38:42;1.80;;;1.70;;
71288;SDS011;59068;52.502;9.860;2023-06-14T09:41:07;2.20;;;1.70;;
71288;SDS011;59068;52.502;9.860;2023-06-14T09:43:32;3.10;;;1.80;;
71288;SDS011;59068;52.502;9.860;2023-06-14T09:46:00;2.63;;;1.80;;
71288;SDS011;59068;52.502;9.860;2023-06-14T09:48:25;2.40;;;2.17;;
71288;SDS011;59068;52.502;9.860;2023-06-14T09:50:51;3.53;;;1.90;;
71288;SDS011;59068;52.502;9.860;2023-06-14T09:53:17;2.63;;;2.10;;
71288;SDS011;59068;52.502;9.860;2023-06-14T09:55:46;4.47;;;2.10;;
71288;SDS011;59068;52.502;9.860;2023-06-14T09:58:13;2.97;;;2.23;;
71288;SDS011;59068;52.502;9.860;2023-06-14T10:00:40;2.27;;;1.80;;
71288;SDS011;59068;52.502;9.860;2023-06-14T10:03:28;3.10;;;2.20;;
71288;SDS011;59068;52.502;9.860;2023-06-14T10:05:53;2.10;;;1.90;;
71288;SDS011;59068;52.502;9.860;2023-06-14T10:08:23;2.03;;;1.90;;
71288;SDS011;59068;52.502;9.860;2023-06-14T10:10:53;2.13;;;1.87;;
71288;SDS011;59068;52.502;9.860;2023-06-14T10:13:20;2.03;;;1.87;;
71288;SDS011;59068;52.502;9.860;2023-06-14T10:21:41;2.50;;;2.03;;
71288;SDS011;59068;52.502;9.860;2023-06-14T10:24:14;2.07;;;1.80;;
71288;SDS011;59068;52.502;9.860;2023-06-14T10:26:54;2.80;;;2.17;;
71288;SDS011;59068;52.502;9.860;2023-06-14T10:29:19;2.97;;;2.13;;
71288;SDS011;59068;52.502;9.860;2023-06-14T10:31:46;3.73;;;2.27;;
71288;SDS011;59068;52.502;9.860;2023-06-14T10:34:13;4.53;;;2.43;;
71288;SDS011;59068;52.502;9.860;2023-06-14T10:39:28;2.70;;;2.50;;
71288;SDS011;59068;52.502;9.860;2023-06-14T10:41:54;2.63;;;2.13;;
71288;SDS011;59068;52.502;9.860;2023-06-14T10:46:46;3.20;;;2.13;;
71288;SDS011;59068;52.502;9.860;2023-06-14T10:49:15;2.40;;;2.20;;
71288;SDS011;59068;52.502;9.860;2023-06-14T10:51:43;3.17;;;2.30;;
71288;SDS011;59068;52.502;9.860;2023-06-14T10:54:12;3.13;;;2.27;;
71288;SDS011;59068;52.502;9.860;2023-06-14T10:56:38;3.70;;;2.33;;
71288;SDS011;59068;52.502;9.860;2023-06-14T10:59:14;2.50;;;2.30;;
71288;SDS011;59068;52.502;9.860;2023-06-14T11:01:57;3.03;;;2.13;;
71288;SDS011;59068;52.502;9.860;2023-06-14T11:04:40;3.30;;;2.23;;
71288;SDS011;59068;52.502;9.860;2023-06-14T11:07:19;3.27;;;2.63;;
71288;SDS011;59068;52.502;9.860;2023-06-14T11:12:35;3.57;;;2.50;;
71288;SDS011;59068;52.502;9.860;2023-06-14T11:15:01;3.40;;;2.57;;
71288;SDS011;59068;52.502;9.860;2023-06-14T11:17:27;2.83;;;2.50;;
71288;SDS011;59068;52.502;9.860;2023-06-14T11:20:07;5.03;;;2.33;;
71288;SDS011;59068;52.502;9.860;2023-06-14T11:22:41;2.90;;;2.60;;
71288;SDS011;59068;52.502;9.860;2023-06-14T11:25:08;2.80;;;2.50;;
71288;SDS011;59068;52.502;9.860;2023-06-14T11:27:35;3.57;;;2.80;;
71288;SDS011;59068;52.502;9.860;2023-06-14T11:30:00;3.50;;;2.77;;
71288;SDS011;59068;52.502;9.860;2023-06-14T11:32:25;3.43;;;2.87;;
71288;SDS011;59068;52.502;9.860;2023-06-14T11:34:51;3.10;;;2.87;;
71288;SDS011;59068;52.502;9.860;2023-06-14T11:37:17;5.67;;;2.80;;
71288;SDS011;59068;52.502;9.860;2023-06-14T11:39:45;4.20;;;2.90;;
71288;SDS011;59068;52.502;9.860;2023-06-14T11:42:15;3.20;;;2.80;;
71288;SDS011;59068;52.502;9.860;2023-06-14T11:44:41;3.93;;;2.43;;
71288;SDS011;59068;52.502;9.860;2023-06-14T11:47:06;4.17;;;2.87;;
71288;SDS011;59068;52.502;9.860;2023-06-14T11:49:35;2.87;;;2.67;;
71288;SDS011;59068;52.502;9.860;2023-06-14T11:52:01;2.90;;;2.70;;
71288;SDS011;59068;52.502;9.860;2023-06-14T11:54:26;4.17;;;2.50;;
71288;SDS011;59068;52.502;9.860;2023-06-14T11:56:52;3.97;;;2.90;;
71288;SDS011;59068;52.502;9.860;2023-06-14T11:59:17;4.20;;;3.00;;
71288;SDS011;59068;52.502;9.860;2023-06-14T12:01:43;3.77;;;2.50;;
71288;SDS011;59068;52.502;9.860;2023-06-14T12:04:08;2.87;;;2.67;;
71288;SDS011;59068;52.502;9.860;2023-06-14T12:06:33;3.63;;;2.63;;
71288;SDS011;59068;52.502;9.860;2023-06-14T12:09:04;3.30;;;3.00;;
71288;SDS011;59068;52.502;9.860;2023-06-14T12:11:37;3.27;;;2.97;;
71288;SDS011;59068;52.502;9.860;2023-06-14T12:14:06;3.33;;;2.90;;
71288;SDS011;59068;52.502;9.860;2023-06-14T12:16:32;2.50;;;2.30;;
71288;SDS011;59068;52.502;9.860;2023-06-14T12:19:14;4.37;;;2.60;;
71288;SDS011;59068;52.502;9.860;2023-06-14T12:21:42;3.63;;;2.80;;
71288;SDS011;59068;52.502;9.860;2023-06-14T12:24:08;2.80;;;2.60;;
71288;SDS011;59068;52.502;9.860;2023-06-14T12:26:40;3.53;;;2.53;;
71288;SDS011;59068;52.502;9.860;2023-06-14T12:29:06;3.50;;;2.57;;
71288;SDS011;59068;52.502;9.860;2023-06-14T12:31:32;2.57;;;2.33;;
71288;SDS011;59068;52.502;9.860;2023-06-14T12:33:58;9.00;;;3.47;;
71288;SDS011;59068;52.502;9.860;2023-06-14T12:36:24;6.03;;;2.50;;
71288;SDS011;59068;52.502;9.860;2023-06-14T12:38:50;3.47;;;3.03;;
71288;SDS011;59068;52.502;9.860;2023-06-14T12:41:18;2.50;;;2.33;;
71288;SDS011;59068;52.502;9.860;2023-06-14T12:43:46;3.53;;;3.00;;
71288;SDS011;59068;52.502;9.860;2023-06-14T12:46:11;2.90;;;2.70;;
71288;SDS011;59068;52.502;9.860;2023-06-14T12:48:36;3.10;;;2.87;;
71288;SDS011;59068;52.502;9.860;2023-06-14T12:51:02;2.83;;;2.30;;
71288;SDS011;59068;52.502;9.860;2023-06-14T12:53:27;4.70;;;2.40;;
71288;SDS011;59068;52.502;9.860;2023-06-14T12:55:52;2.57;;;2.37;;
71288;SDS011;59068;52.502;9.860;2023-06-14T12:58:17;2.87;;;2.67;;
71288;SDS011;59068;52.502;9.860;2023-06-14T13:00:44;3.63;;;2.50;;
71288;SDS011;59068;52.502;9.860;2023-06-14T13:03:10;3.10;;;2.67;;
71288;SDS011;59068;52.502;9.860;2023-06-14T13:05:35;5.20;;;2.57;;
71288;SDS011;59068;52.502;9.860;2023-06-14T13:08:02;2.57;;;2.37;;
71288;SDS011;59068;52.502;9.860;2023-06-14T13:10:27;3.00;;;2.70;;
71288;SDS011;59068;52.502;9.860;2023-06-14T13:12:53;3.53;;;2.70;;
71288;SDS011;59068;52.502;9.860;2023-06-14T13:15:18;2.60;;;2.40;;
71288;SDS011;59068;52.502;9.860;2023-06-14T13:17:43;4.50;;;2.53;;
71288;SDS011;59068;52.502;9.860;2023-06-14T13:20:13;4.20;;;2.70;;
71288;SDS011;59068;52.502;9.860;2023-06-14T13:22:39;3.20;;;2.90;;
71288;SDS011;59068;52.502;9.860;2023-06-14T13:25:04;2.77;;;2.57;;
71288;SDS011;59068;52.502;9.860;2023-06-14T13:27:31;3.00;;;2.60;;
71288;SDS011;59068;52.502;9.860;2023-06-14T13:29:56;6.57;;;2.90;;
71288;SDS011;59068;52.502;9.860;2023-06-14T13:32:21;3.23;;;2.73;;
71288;SDS011;59068;52.502;9.860;2023-06-14T13:34:47;3.97;;;2.73;;
71288;SDS011;59068;52.502;9.860;2023-06-14T13:37:12;2.80;;;2.60;;
71288;SDS011;59068;52.502;9.860;2023-06-14T13:39:38;5.67;;;2.57;;
71288;SDS011;59068;52.502;9.860;2023-06-14T13:42:04;4.83;;;2.90;;
71288;SDS011;59068;52.502;9.860;2023-06-14T13:44:29;3.00;;;2.70;;
71288;SDS011;59068;52.502;9.860;2023-06-14T13:46:55;4.60;;;2.73;;
71288;SDS011;59068;52.502;9.860;2023-06-14T13:49:20;3.30;;;3.00;;
71288;SDS011;59068;52.502;9.860;2023-06-14T13:51:45;2.73;;;2.53;;
71288;SDS011;59068;52.502;9.860;2023-06-14T13:54:12;2.97;;;2.60;;
71288;SDS011;59068;52.502;9.860;2023-06-14T13:56:38;6.10;;;3.53;;
71288;SDS011;59068;52.502;9.860;2023-06-14T13:59:04;4.30;;;2.73;;
71288;SDS011;59068;52.502;9.860;2023-06-14T14:01:29;3.07;;;2.83;;
71288;SDS011;59068;52.502;9.860;2023-06-14T14:03:55;3.17;;;2.97;;
71288;SDS011;59068;52.502;9.860;2023-06-14T14:06:20;3.50;;;2.70;;
71288;SDS011;59068;52.502;9.860;2023-06-14T14:08:46;3.13;;;2.63;;
71288;SDS011;59068;52.502;9.860;2023-06-14T14:11:11;3.63;;;2.90;;
71288;SDS011;59068;52.502;9.860;2023-06-14T14:13:37;2.97;;;2.70;;
71288;SDS011;59068;52.502;9.860;2023-06-14T14:16:03;2.93;;;2.40;;
71288;SDS011;59068;52.502;9.860;2023-06-14T14:18:29;3.87;;;2.80;;
71288;SDS011;59068;52.502;9.860;2023-06-14T14:20:54;3.93;;;2.77;;
71288;SDS011;59068;52.502;9.860;2023-06-14T14:23:21;2.77;;;2.57;;
71288;SDS011;59068;52.502;9.860;2023-06-14T14:25:46;5.07;;;3.07;;
71288;SDS011;59068;52.502;9.860;2023-06-14T14:28:12;4.50;;;2.70;;
71288;SDS011;59068;52.502;9.860;2023-06-14T14:30:38;2.70;;;2.50;;
71288;SDS011;59068;52.502;9.860;2023-06-14T14:33:05;3.53;;;2.37;;
71288;SDS011;59068;52.502;9.860;2023-06-14T14:35:31;3.40;;;2.63;;
71288;SDS011;59068;52.502;9.860;2023-06-14T14:37:56;5.30;;;2.80;;
71288;SDS011;59068;52.502;9.860;2023-06-14T14:40:22;4.83;;;2.77;;
71288;SDS011;59068;52.502;9.860;2023-06-14T14:42:47;3.10;;;2.80;;
71288;SDS011;59068;52.502;9.860;2023-06-14T14:45:13;3.83;;;2.70;;
71288;SDS011;59068;52.502;9.860;2023-06-14T14:47:38;3.57;;;2.80;;
71288;SDS011;59068;52.502;9.860;2023-06-14T14:50:03;3.77;;;2.90;;
71288;SDS011;59068;52.502;9.860;2023-06-14T14:52:29;4.33;;;2.63;;
71288;SDS011;59068;52.502;9.860;2023-06-14T14:54:54;4.93;;;4.17;;
71288;SDS011;59068;52.502;9.860;2023-06-14T14:57:20;3.87;;;3.40;;